»·PEaware :: N604MB KPDX-KRDD

N604MB :: KPDX-KRDD

FLIGHT INFORMATION

Flight Status: Arrived
Operator: Privately registered:
United States
More flights under this callsign
Pilot: Morgan B. (13340)
Aircraft: SOCATA TBM-900
(TBM9)
More flights by this aircraft type
Origin: KPDX Portland Intl
United States
Destination: KRDD Redding Mun
United States
More flights between these airports :: More routes between these airports
Route: +PTLD1 EUG OED
File this flight plan on PilotEdge
Remarks:
Altitude:
(Current/Filed)
26,000ft
Speed:
(Current/Filed)
200kts
Departed: 14-Sep-19 06:07 PM
Arrived: 14-Sep-19 07:26 PM
Distance/Time
Traveled:
305nm/1:19
Distance/Time
To Go:
Arrived

Flight Plot

Page will automatically refresh every two minutes.

Flight plan parsing failed; only flown route is shown


Map Options




Map Legend


Flown Route
Filed Route
Departure Airport
Arrival Airport
Navaid (VOR, NDB)
Fix

Horizontal Profiles

Position Reports

Time Latitude Longitude Heading Altitude Ground
Speed
14-Sep-19 17:42 45.588973 -122.613521 118 16ft 0kts
14-Sep-19 17:43 45.588973 -122.613521 118 16ft 0kts
14-Sep-19 17:44 45.588973 -122.613521 118 16ft 0kts
14-Sep-19 17:45 45.588973 -122.613521 118 16ft 0kts
14-Sep-19 17:46 45.588973 -122.613521 118 16ft 0kts
14-Sep-19 17:47 45.588973 -122.613521 118 16ft 0kts
14-Sep-19 17:48 45.588973 -122.613521 118 16ft 0kts
14-Sep-19 17:49 45.588973 -122.613521 118 16ft 0kts
14-Sep-19 17:50 45.588973 -122.613521 118 16ft 0kts
14-Sep-19 17:51 45.588973 -122.613521 118 16ft 0kts
14-Sep-19 17:52 45.588973 -122.613521 118 16ft 0kts
14-Sep-19 17:53 45.588973 -122.613521 118 16ft 0kts
14-Sep-19 17:54 45.588973 -122.613521 118 16ft 0kts
14-Sep-19 17:55 45.588973 -122.613521 118 16ft 0kts
14-Sep-19 17:56 45.588973 -122.613521 118 16ft 0kts
14-Sep-19 17:57 45.588973 -122.613521 118 16ft 0kts
14-Sep-19 17:58 45.588973 -122.613521 118 16ft 0kts
14-Sep-19 17:59 45.588973 -122.613521 118 16ft 0kts
14-Sep-19 18:00 45.589030 -122.613360 20 16ft 0kts
14-Sep-19 18:01 45.589847 -122.612748 75 16ft 17kts
14-Sep-19 18:02 45.588096 -122.606649 119 16ft 33kts
14-Sep-19 18:03 45.583816 -122.595488 118 16ft 37kts
14-Sep-19 18:04 45.579922 -122.585371 110 16ft 19kts
14-Sep-19 18:05 45.579979 -122.584729 40 16ft 8kts
14-Sep-19 18:06 45.586333 -122.602194 291 309ft 128kts
14-Sep-19 18:07 45.605967 -122.658162 297 1529ft 184kts
14-Sep-19 18:08 45.629797 -122.724387 297 3033ft 188kts
14-Sep-19 18:09 45.640790 -122.788982 174 4864ft 184kts
14-Sep-19 18:10 45.600482 -122.799975 225 6653ft 163kts
14-Sep-19 18:11 45.559182 -122.812093 174 8151ft 183kts
14-Sep-19 18:12 45.514191 -122.796313 174 9847ft 195kts
14-Sep-19 18:13 45.467377 -122.779808 175 11636ft 194kts
14-Sep-19 18:14 45.418968 -122.762775 176 13501ft 193kts
14-Sep-19 18:15 45.367661 -122.744828 176 15457ft 200kts
14-Sep-19 18:16 45.315925 -122.741563 203 17406ft 192kts
14-Sep-19 18:17 45.264364 -122.762289 204 19431ft 190kts
14-Sep-19 18:18 45.210770 -122.784312 205 21536ft 196kts
14-Sep-19 18:19 45.156198 -122.806670 205 23613ft 195kts
14-Sep-19 18:20 45.104274 -122.827916 205 25611ft 189kts
14-Sep-19 18:21 45.049758 -122.850352 202 26015ft 242kts
14-Sep-19 18:22 44.982602 -122.877651 200 25993ft 283kts
14-Sep-19 18:23 44.909284 -122.907351 200 25982ft 292kts
14-Sep-19 18:24 44.836870 -122.936691 200 25984ft 295kts
14-Sep-19 18:25 44.760867 -122.967409 200 25984ft 295kts
14-Sep-19 18:26 44.682731 -122.998911 200 25988ft 295kts
14-Sep-19 18:27 44.603609 -123.030716 200 25994ft 295kts
14-Sep-19 18:28 44.527278 -123.061312 200 25998ft 295kts
14-Sep-19 18:29 44.450057 -123.092185 200 25999ft 295kts
14-Sep-19 18:30 44.376748 -123.121413 200 25998ft 295kts
14-Sep-19 18:31 44.306429 -123.149384 200 25998ft 295kts
14-Sep-19 18:32 44.235808 -123.177394 200 25998ft 295kts
14-Sep-19 18:33 44.160531 -123.207182 200 25997ft 295kts
14-Sep-19 18:34 44.080171 -123.215074 177 26000ft 307kts
14-Sep-19 18:35 44.005546 -123.200496 178 25997ft 307kts
14-Sep-19 18:36 43.931868 -123.186264 178 25996ft 307kts
14-Sep-19 18:37 43.860481 -123.172518 178 26000ft 307kts
14-Sep-19 18:38 43.785840 -123.158180 178 26000ft 307kts
14-Sep-19 18:39 43.708331 -123.143331 178 26000ft 307kts
14-Sep-19 18:40 43.626359 -123.127667 178 26002ft 307kts
14-Sep-19 18:41 43.542854 -123.111753 178 26006ft 307kts
14-Sep-19 18:42 43.460056 -123.096019 178 26008ft 307kts
14-Sep-19 18:43 43.373204 -123.080315 176 26009ft 308kts
14-Sep-19 18:44 43.286879 -123.062899 177 26008ft 307kts
14-Sep-19 18:45 43.203065 -123.047451 178 26007ft 307kts
14-Sep-19 18:46 43.116007 -123.031102 178 26007ft 307kts
14-Sep-19 18:47 43.028090 -123.014650 177 26007ft 307kts
14-Sep-19 18:48 42.945650 -122.999323 175 25985ft 305kts
14-Sep-19 18:49 42.863867 -122.984048 173 25963ft 305kts
14-Sep-19 18:50 42.779959 -122.968406 173 25942ft 306kts
14-Sep-19 18:51 42.693485 -122.952381 173 25927ft 306kts
14-Sep-19 18:52 42.604116 -122.935869 173 25927ft 306kts
14-Sep-19 18:53 42.513034 -122.919089 173 25927ft 306kts
14-Sep-19 18:54 42.422635 -122.894463 167 25926ft 306kts
14-Sep-19 18:55 42.334119 -122.865854 167 25926ft 306kts
14-Sep-19 18:56 42.247483 -122.837919 167 25926ft 306kts
14-Sep-19 18:57 42.159754 -122.809710 167 25931ft 306kts
14-Sep-19 18:58 42.071713 -122.781483 167 25943ft 306kts
14-Sep-19 18:59 41.989337 -122.755145 167 25959ft 306kts
14-Sep-19 19:00 41.908391 -122.729317 168 25376ft 268kts
14-Sep-19 19:01 41.823781 -122.702413 167 23525ft 322kts
14-Sep-19 19:02 41.734371 -122.674046 168 21632ft 330kts
14-Sep-19 19:03 41.649044 -122.647058 168 19723ft 308kts
14-Sep-19 19:04 41.566828 -122.621130 168 17822ft 302kts
14-Sep-19 19:05 41.488323 -122.596462 168 16959ft 264kts
14-Sep-19 19:06 41.421698 -122.575541 168 17087ft 235kts
14-Sep-19 19:07 41.358772 -122.555831 168 17089ft 230kts
14-Sep-19 19:08 41.296891 -122.536484 168 17090ft 227kts
14-Sep-19 19:09 41.235269 -122.517257 168 17080ft 227kts
14-Sep-19 19:10 41.179123 -122.499768 168 17060ft 227kts
14-Sep-19 19:11 41.115455 -122.479981 168 16159ft 253kts
14-Sep-19 19:13 41.047685 -122.458890 169 14357ft 224kts
14-Sep-19 19:14 40.994696 -122.442452 170 12442ft 174kts
14-Sep-19 19:15 40.945630 -122.427395 169 10670ft 197kts
14-Sep-19 19:16 40.893697 -122.411333 169 9994ft 184kts
14-Sep-19 19:17 40.837425 -122.394022 168 8364ft 225kts
14-Sep-19 19:18 40.775506 -122.374950 168 6993ft 216kts
14-Sep-19 19:19 40.733522 -122.331254 127 6997ft 198kts
14-Sep-19 19:20 40.692531 -122.281351 165 5970ft 210kts
14-Sep-19 19:21 40.631697 -122.293281 192 3405ft 220kts
14-Sep-19 19:22 40.594264 -122.299431 151 2998ft 98kts
14-Sep-19 19:23 40.570997 -122.291738 177 2553ft 93kts
14-Sep-19 19:24 40.547279 -122.293891 181 1848ft 90kts
14-Sep-19 19:25 40.524128 -122.294835 179 727ft 77kts
14-Sep-19 19:26 40.510446 -122.295715 269 495ft 0kts
14-Sep-19 19:27 40.507765 -122.298384 283 494ft 2kts
14-Sep-19 19:28 40.508130 -122.298740 353 495ft 0kts
14-Sep-19 19:28 40.508130 -122.298740 353 495ft 0kts
14-Sep-19 19:30 40.508130 -122.298740 353 495ft 0kts

Navigation Log

Ident Type
Flight plan parsing failed, navigation log unavailable